TimeCST,TemperatureF,Dew PointF,Humidity,Sea Level PressureIn,VisibilityMPH,Wind Direction,Wind SpeedMPH,Gust SpeedMPH,PrecipitationIn,Events,Conditions,WindDirDegrees,DateUTC
12:15 AM,43.2,29.5,59,29.71,10.0,SSW,10.4,-,N/A,,Overcast,200,2013-02-14 06:15:00
12:35 AM,43.2,29.5,59,29.71,10.0,SSW,12.7,-,N/A,,Overcast,210,2013-02-14 06:35:00
12:55 AM,43.2,29.8,59,29.72,10.0,SW,10.4,-,N/A,,Overcast,220,2013-02-14 06:55:00
1:15 AM,41.9,29.3,61,29.71,10.0,SW,8.1,-,N/A,,Mostly Cloudy,230,2013-02-14 07:15:00
1:35 AM,42.1,28.4,58,29.71,10.0,SW,9.2,16.1,N/A,,Clear,230,2013-02-14 07:35:00
1:55 AM,41.4,28.4,60,29.72,10.0,WSW,10.4,-,N/A,,Scattered Clouds,240,2013-02-14 07:55:00
2:15 AM,41.7,28.4,59,29.72,10.0,WSW,10.4,-,N/A,,Mostly Cloudy,240,2013-02-14 08:15:00
2:35 AM,40.6,27.9,60,29.72,10.0,WSW,10.4,-,N/A,,Scattered Clouds,250,2013-02-14 08:35:00
2:55 AM,40.1,27.9,62,29.72,10.0,WSW,8.1,-,N/A,,Clear,240,2013-02-14 08:55:00
3:15 AM,39.6,27.7,62,29.73,10.0,WSW,8.1,-,N/A,,Clear,250,2013-02-14 09:15:00
3:35 AM,39.0,27.9,64,29.72,10.0,WSW,9.2,-,N/A,,Clear,240,2013-02-14 09:35:00
3:55 AM,39.2,27.5,63,29.72,10.0,WSW,6.9,-,N/A,,Clear,250,2013-02-14 09:55:00
4:15 AM,38.7,27.5,64,29.73,10.0,WSW,10.4,-,N/A,,Clear,250,2013-02-14 10:15:00
4:35 AM,40.1,27.3,60,29.73,10.0,WSW,6.9,-,N/A,,Clear,250,2013-02-14 10:35:00
4:55 AM,39.6,27.5,62,29.73,10.0,WSW,8.1,-,N/A,,Clear,250,2013-02-14 10:55:00
5:15 AM,38.7,27.7,65,29.74,10.0,WSW,8.1,-,N/A,,Clear,250,2013-02-14 11:15:00
5:35 AM,40.1,27.3,60,29.75,10.0,West,8.1,-,N/A,,Clear,260,2013-02-14 11:35:00
5:55 AM,40.8,28.2,61,29.75,10.0,WNW,17.3,23.0,N/A,,Clear,290,2013-02-14 11:55:00
6:15 AM,41.0,28.8,62,29.76,10.0,West,15.0,20.7,N/A,,Scattered Clouds,280,2013-02-14 12:15:00
6:35 AM,41.4,29.1,62,29.78,10.0,West,11.5,23.0,N/A,,Mostly Cloudy,280,2013-02-14 12:35:00
6:55 AM,41.2,28.9,62,29.78,10.0,West,16.1,21.9,N/A,,Overcast,280,2013-02-14 12:55:00
7:15 AM,41.5,28.4,60,29.79,10.0,WNW,15.0,21.9,N/A,,Overcast,290,2013-02-14 13:15:00
7:35 AM,41.9,28.2,58,29.80,10.0,West,15.0,25.3,N/A,,Overcast,280,2013-02-14 13:35:00
7:55 AM,41.7,28.4,59,29.82,10.0,WNW,11.5,18.4,N/A,,Overcast,290,2013-02-14 13:55:00
8:15 AM,41.5,27.1,57,29.84,10.0,WNW,18.4,28.8,N/A,,Overcast,300,2013-02-14 14:15:00
8:35 AM,41.0,27.1,58,29.85,10.0,WNW,13.8,29.9,N/A,,Overcast,290,2013-02-14 14:35:00
8:55 AM,41.2,27.3,58,29.85,10.0,WNW,17.3,26.5,N/A,,Overcast,290,2013-02-14 14:55:00
9:15 AM,41.2,27.0,57,29.86,10.0,WNW,18.4,27.6,N/A,,Overcast,300,2013-02-14 15:15:00
9:35 AM,41.5,27.1,57,29.87,10.0,WNW,16.1,26.5,N/A,,Overcast,290,2013-02-14 15:35:00
9:55 AM,41.9,27.3,56,29.88,10.0,WNW,20.7,26.5,N/A,,Overcast,290,2013-02-14 15:55:00
10:15 AM,42.1,26.8,55,29.90,10.0,WNW,16.1,24.2,N/A,,Overcast,290,2013-02-14 16:15:00
10:35 AM,42.6,27.5,55,29.89,10.0,WNW,13.8,21.9,N/A,,Overcast,300,2013-02-14 16:35:00
10:55 AM,42.8,27.3,54,29.88,10.0,WNW,18.4,26.5,N/A,,Overcast,300,2013-02-14 16:55:00
11:15 AM,42.8,27.7,55,29.89,10.0,NW,11.5,28.8,N/A,,Overcast,310,2013-02-14 17:15:00
11:35 AM,42.4,27.7,56,29.90,10.0,NW,10.4,26.5,N/A,,Overcast,310,2013-02-14 17:35:00
11:55 AM,42.3,27.1,55,29.91,10.0,WNW,15.0,23.0,N/A,,Overcast,300,2013-02-14 17:55:00
12:15 PM,42.3,27.3,56,29.92,10.0,WNW,15.0,20.7,N/A,,Overcast,290,2013-02-14 18:15:00
12:35 PM,42.8,26.8,53,29.92,10.0,WNW,11.5,20.7,N/A,,Overcast,300,2013-02-14 18:35:00
12:55 PM,43.0,27.1,54,29.92,10.0,WNW,15.0,18.4,N/A,,Overcast,290,2013-02-14 18:55:00
1:15 PM,43.0,26.6,52,29.92,10.0,WNW,17.3,21.9,N/A,,Overcast,300,2013-02-14 19:15:00
1:35 PM,43.0,26.6,52,29.93,10.0,WNW,12.7,19.6,N/A,,Overcast,290,2013-02-14 19:35:00
1:55 PM,43.2,26.8,52,29.93,10.0,West,11.5,-,N/A,,Overcast,280,2013-02-14 19:55:00
2:15 PM,45.5,26.6,48,29.93,10.0,West,9.2,16.1,N/A,,Mostly Cloudy,280,2013-02-14 20:15:00
2:35 PM,45.5,26.4,47,29.94,10.0,NW,11.5,-,N/A,,Overcast,310,2013-02-14 20:35:00
2:55 PM,45.1,26.4,48,29.95,10.0,WNW,9.2,25.3,N/A,,Overcast,290,2013-02-14 20:55:00
3:15 PM,44.8,26.4,49,29.96,10.0,West,13.8,23.0,N/A,,Overcast,270,2013-02-14 21:15:00
3:35 PM,45.1,26.6,48,29.96,10.0,West,11.5,19.6,N/A,,Overcast,270,2013-02-14 21:35:00
3:55 PM,46.8,27.1,46,29.95,10.0,WNW,8.1,-,N/A,,Overcast,300,2013-02-14 21:55:00
4:15 PM,45.5,26.1,47,29.95,10.0,WNW,9.2,-,N/A,,Mostly Cloudy,290,2013-02-14 22:15:00
4:35 PM,45.5,26.2,47,29.96,10.0,WNW,6.9,-,N/A,,Overcast,290,2013-02-14 22:35:00
4:55 PM,45.1,26.4,48,29.96,10.0,WNW,6.9,-,N/A,,Overcast,290,2013-02-14 22:55:00
5:15 PM,44.6,27.7,52,29.98,10.0,WNW,16.1,19.6,N/A,Rain,Light Rain,290,2013-02-14 23:15:00
5:35 PM,43.7,29.1,57,29.98,10.0,West,12.7,-,N/A,,Overcast,270,2013-02-14 23:35:00
5:55 PM,43.9,28.4,55,29.98,10.0,West,12.7,-,N/A,,Overcast,260,2013-02-14 23:55:00
6:15 PM,43.9,27.5,53,29.99,10.0,West,10.4,19.6,N/A,,Overcast,280,2013-02-15 00:15:00
6:35 PM,43.2,28.4,56,30.00,10.0,WNW,6.9,-,N/A,,Overcast,290,2013-02-15 00:35:00
6:55 PM,42.3,28.4,58,30.01,10.0,WNW,11.5,-,N/A,,Mostly Cloudy,300,2013-02-15 00:55:00
7:15 PM,42.3,27.3,56,30.01,10.0,WNW,13.8,19.6,N/A,,Scattered Clouds,300,2013-02-15 01:15:00
7:35 PM,41.4,25.7,54,30.02,10.0,WNW,13.8,20.7,N/A,,Clear,290,2013-02-15 01:35:00
7:55 PM,40.5,25.7,56,30.02,10.0,WNW,11.5,21.9,N/A,,Clear,300,2013-02-15 01:55:00
8:15 PM,39.6,26.4,59,30.02,10.0,WNW,15.0,19.6,N/A,,Clear,290,2013-02-15 02:15:00
8:35 PM,39.6,25.7,58,30.02,10.0,WNW,16.1,23.0,N/A,,Scattered Clouds,300,2013-02-15 02:35:00
8:55 PM,38.8,27.0,62,30.03,10.0,WNW,12.7,18.4,N/A,,Mostly Cloudy,300,2013-02-15 02:55:00
9:15 PM,38.7,27.9,65,30.04,10.0,NW,9.2,-,N/A,,Mostly Cloudy,310,2013-02-15 03:15:00
9:35 PM,38.5,28.0,66,30.05,10.0,NNW,17.3,-,N/A,,Overcast,330,2013-02-15 03:35:00
9:55 PM,37.2,27.3,67,30.06,10.0,NW,11.5,-,N/A,,Overcast,320,2013-02-15 03:55:00
10:15 PM,36.5,26.6,67,30.06,10.0,WNW,10.4,16.1,N/A,,Mostly Cloudy,300,2013-02-15 04:15:00
10:35 PM,35.6,25.7,67,30.07,10.0,NW,10.4,17.3,N/A,,Clear,310,2013-02-15 04:35:00
10:55 PM,35.1,25.7,69,30.08,10.0,WNW,6.9,-,N/A,,Clear,290,2013-02-15 04:55:00
11:15 PM,34.7,25.9,70,30.08,10.0,NW,9.2,-,N/A,,Scattered Clouds,310,2013-02-15 05:15:00
11:35 PM,34.7,25.3,69,30.09,10.0,NW,10.4,17.3,N/A,,Scattered Clouds,310,2013-02-15 05:35:00
11:55 PM,34.7,24.3,66,30.10,10.0,NW,11.5,19.6,N/A,,Mostly Cloudy,310,2013-02-15 05:55:00